Time,TemperatureF,DewpointF,PressureIn,WindDirection,WindDirectionDegrees,WindSpeedMPH,WindSpeedGustMPH,Humidity,HourlyPrecipIn,Conditions,Clouds,dailyrainin,SoftwareType,DateUTC
2013-06-03 00:08:00,70.2,44.1,29.76,North,8,1.0,2.0,39,0.00,,,0.00,Wunderground v.1.15,2013-06-03 06:08:00,
2013-06-03 00:14:00,70.3,44.2,29.76,NNE,27,2.0,3.0,39,0.00,,,0.00,Wunderground v.1.15,2013-06-03 06:14:00,
2013-06-03 00:23:00,70.1,44.0,29.76,North,8,2.0,2.0,39,0.00,,,0.00,Wunderground v.1.15,2013-06-03 06:23:00,
2013-06-03 00:29:00,69.7,42.3,29.76,NNE,30,1.0,1.0,37,0.00,,,0.00,Wunderground v.1.15,2013-06-03 06:29:00,
2013-06-03 00:38:00,69.1,41.7,29.76,NNE,25,0.0,0.0,37,0.00,,,0.00,Wunderground v.1.15,2013-06-03 06:38:00,
2013-06-03 00:48:00,68.6,42.0,29.76,NNE,27,0.0,0.0,38,0.00,,,0.00,Wunderground v.1.15,2013-06-03 06:48:00,
2013-06-03 00:54:00,68.0,41.4,29.76,NNE,26,0.0,0.0,38,0.00,,,0.00,Wunderground v.1.15,2013-06-03 06:54:00,
2013-06-03 00:59:00,67.7,41.8,29.76,SE,141,0.0,1.0,39,0.00,,,0.00,Wunderground v.1.15,2013-06-03 06:59:00,
2013-06-03 01:08:00,67.7,41.8,29.77,SE,128,1.0,1.0,39,0.00,,,0.00,Wunderground v.1.15,2013-06-03 07:08:00,
2013-06-03 01:13:00,68.0,42.1,29.77,ESE,116,1.0,1.0,39,0.00,,,0.00,Wunderground v.1.15,2013-06-03 07:13:00,
2013-06-03 01:23:00,67.5,42.3,29.76,ESE,116,0.0,1.0,40,0.00,,,0.00,Wunderground v.1.15,2013-06-03 07:23:00,
2013-06-03 01:33:00,66.8,42.3,29.76,SSE,153,0.0,0.0,41,0.00,,,0.00,Wunderground v.1.15,2013-06-03 07:33:00,
2013-06-03 01:38:00,66.5,43.3,29.77,SSE,153,0.0,0.0,43,0.00,,,0.00,Wunderground v.1.15,2013-06-03 07:38:00,
2013-06-03 01:43:00,66.2,43.6,29.77,SSE,153,0.0,0.0,44,0.00,,,0.00,Wunderground v.1.15,2013-06-03 07:43:00,
2013-06-03 01:49:00,65.8,43.3,29.77,SSE,154,0.0,0.0,44,0.00,,,0.00,Wunderground v.1.15,2013-06-03 07:49:00,
2013-06-03 01:59:00,65.4,43.5,29.77,SSE,152,0.0,0.0,45,0.00,,,0.00,Wunderground v.1.15,2013-06-03 07:59:00,
2013-06-03 02:08:00,66.1,42.9,29.77,SE,128,1.0,1.0,43,0.00,,,0.00,Wunderground v.1.15,2013-06-03 08:08:00,
2013-06-03 02:13:00,65.9,43.4,29.77,SE,129,0.0,1.0,44,0.00,,,0.00,Wunderground v.1.15,2013-06-03 08:13:00,
2013-06-03 02:23:00,65.5,43.6,29.77,SE,129,0.0,0.0,45,0.00,,,0.00,Wunderground v.1.15,2013-06-03 08:23:00,
2013-06-03 02:28:00,65.2,43.9,29.77,SE,129,0.0,0.0,46,0.00,,,0.00,Wunderground v.1.15,2013-06-03 08:28:00,
2013-06-03 02:33:00,64.8,43.5,29.78,WSW,250,0.0,0.0,46,0.00,,,0.00,Wunderground v.1.15,2013-06-03 08:33:00,
2013-06-03 02:38:00,64.6,43.9,29.78,WSW,249,0.0,0.0,47,0.00,,,0.00,Wunderground v.1.15,2013-06-03 08:38:00,
2013-06-03 02:48:00,64.5,44.4,29.78,East,100,0.0,0.0,48,0.00,,,0.00,Wunderground v.1.15,2013-06-03 08:48:00,
2013-06-03 02:59:00,66.0,46.8,29.78,SSE,153,1.0,1.0,50,0.00,,,0.00,Wunderground v.1.15,2013-06-03 08:59:00,
2013-06-03 03:08:00,68.3,47.8,29.78,SSE,165,3.0,3.0,48,0.00,,,0.00,Wunderground v.1.15,2013-06-03 09:08:00,
2013-06-03 03:13:00,68.6,47.6,29.78,SE,132,2.0,3.0,47,0.00,,,0.00,Wunderground v.1.15,2013-06-03 09:13:00,
2013-06-03 03:23:00,68.8,47.7,29.78,SE,132,2.0,3.0,47,0.00,,,0.00,Wunderground v.1.15,2013-06-03 09:23:00,
2013-06-03 03:33:00,68.4,47.4,29.78,SE,132,1.0,2.0,47,0.00,,,0.00,Wunderground v.1.15,2013-06-03 09:33:00,
2013-06-03 03:38:00,68.5,47.5,29.78,SE,146,2.0,3.0,47,0.00,,,0.00,Wunderground v.1.15,2013-06-03 09:38:00,
2013-06-03 03:43:00,68.9,47.3,29.78,SSE,148,4.0,4.0,46,0.00,,,0.00,Wunderground v.1.15,2013-06-03 09:43:00,
2013-06-03 03:48:00,69.4,47.1,29.78,South,181,5.0,6.0,45,0.00,,,0.00,Wunderground v.1.15,2013-06-03 09:48:00,
2013-06-03 03:59:00,69.0,46.8,29.79,SE,142,4.0,4.0,45,0.00,,,0.00,Wunderground v.1.15,2013-06-03 09:59:00,
2013-06-03 04:08:00,68.5,46.9,29.79,ESE,114,2.0,2.0,46,0.00,,,0.00,Wunderground v.1.15,2013-06-03 10:08:00,
2013-06-03 04:13:00,68.5,47.5,29.79,SE,139,3.0,3.0,47,0.00,,,0.00,Wunderground v.1.15,2013-06-03 10:13:00,
2013-06-03 04:23:00,68.3,47.3,29.79,ESE,113,3.0,8.0,47,0.00,,,0.00,Wunderground v.1.15,2013-06-03 10:23:00,
2013-06-03 04:33:00,68.1,47.7,29.79,SE,141,3.0,4.0,48,0.00,,,0.00,Wunderground v.1.15,2013-06-03 10:33:00,
2013-06-03 04:38:00,68.1,47.7,29.79,SSE,162,4.0,6.0,48,0.00,,,0.00,Wunderground v.1.15,2013-06-03 10:38:00,
2013-06-03 04:48:00,67.8,47.4,29.79,SE,131,4.0,4.0,48,0.00,,,0.00,Wunderground v.1.15,2013-06-03 10:48:00,
2013-06-03 04:59:00,67.5,47.7,29.79,ESE,122,3.0,3.0,49,0.00,,,0.00,Wunderground v.1.15,2013-06-03 10:59:00,
2013-06-03 05:08:00,67.4,47.6,29.80,ESE,105,3.0,3.0,49,0.00,,,0.00,Wunderground v.1.15,2013-06-03 11:08:00,
2013-06-03 05:13:00,67.3,47.5,29.80,SE,124,3.0,4.0,49,0.00,,,0.00,Wunderground v.1.15,2013-06-03 11:13:00,
2013-06-03 05:18:00,67.1,47.3,29.80,East,96,3.0,5.0,49,0.00,,,0.00,Wunderground v.1.15,2013-06-03 11:18:00,
2013-06-03 05:28:00,67.1,47.3,29.80,SSW,193,4.0,4.0,49,0.00,,,0.00,Wunderground v.1.15,2013-06-03 11:28:00,
2013-06-03 05:38:00,66.8,47.0,29.81,SSE,150,4.0,4.0,49,0.00,,,0.00,Wunderground v.1.15,2013-06-03 11:38:00,
2013-06-03 05:48:00,66.6,46.8,29.81,SSE,160,5.0,5.0,49,0.00,,,0.00,Wunderground v.1.15,2013-06-03 11:48:00,
2013-06-03 05:53:00,66.5,46.7,29.82,SSE,158,4.0,5.0,49,0.00,,,0.00,Wunderground v.1.15,2013-06-03 11:53:00,
2013-06-03 05:59:00,66.2,46.5,29.82,ESE,118,3.0,3.0,49,0.00,,,0.00,Wunderground v.1.15,2013-06-03 11:59:00,
2013-06-03 06:08:00,65.9,46.7,29.82,SE,146,4.0,5.0,50,0.00,,,0.00,Wunderground v.1.15,2013-06-03 12:08:00,
2013-06-03 06:18:00,65.7,46.5,29.82,SE,139,3.0,3.0,50,0.00,,,0.00,Wunderground v.1.15,2013-06-03 12:18:00,
2013-06-03 06:28:00,65.6,47.0,29.83,SE,127,3.0,3.0,51,0.00,,,0.00,Wunderground v.1.15,2013-06-03 12:28:00,
2013-06-03 06:33:00,65.6,47.0,29.83,SE,131,3.0,3.0,51,0.00,,,0.00,Wunderground v.1.15,2013-06-03 12:33:00,
2013-06-03 06:43:00,65.8,47.2,29.83,ESE,102,3.0,3.0,51,0.00,,,0.00,Wunderground v.1.15,2013-06-03 12:43:00,
2013-06-03 06:48:00,65.8,47.2,29.83,SSE,148,2.0,2.0,51,0.00,,,0.00,Wunderground v.1.15,2013-06-03 12:48:00,
2013-06-03 06:59:00,66.0,47.3,29.83,SE,134,2.0,2.0,51,0.00,,,0.00,Wunderground v.1.15,2013-06-03 12:59:00,
2013-06-03 07:08:00,66.2,47.5,29.83,SSE,162,1.0,1.0,51,0.00,,,0.00,Wunderground v.1.15,2013-06-03 13:08:00,
2013-06-03 07:14:00,66.5,47.3,29.83,SE,125,1.0,1.0,50,0.00,,,0.00,Wunderground v.1.15,2013-06-03 13:14:00,
2013-06-03 07:23:00,67.0,46.7,29.84,SSE,155,3.0,5.0,48,0.00,,,0.00,Wunderground v.1.15,2013-06-03 13:23:00,
2013-06-03 07:33:00,67.3,46.9,29.84,SSE,150,3.0,5.0,48,0.00,,,0.00,Wunderground v.1.15,2013-06-03 13:33:00,
2013-06-03 07:43:00,67.6,47.2,29.84,SE,130,3.0,5.0,48,0.00,,,0.00,Wunderground v.1.15,2013-06-03 13:43:00,
2013-06-03 07:53:00,67.9,47.5,29.84,SSE,165,4.0,4.0,48,0.00,,,0.00,Wunderground v.1.15,2013-06-03 13:53:00,
2013-06-03 07:59:00,68.2,47.2,29.84,South,173,4.0,5.0,47,0.00,,,0.00,Wunderground v.1.15,2013-06-03 13:59:00,
2013-06-03 08:08:00,68.4,47.4,29.84,SE,145,6.0,6.0,47,0.00,,,0.00,Wunderground v.1.15,2013-06-03 14:08:00,
2013-06-03 08:14:00,68.6,47.6,29.84,SSE,148,6.0,7.0,47,0.00,,,0.00,Wunderground v.1.15,2013-06-03 14:14:00,
2013-06-03 08:23:00,69.0,47.9,29.84,SSE,154,6.0,7.0,47,0.00,,,0.00,Wunderground v.1.15,2013-06-03 14:23:00,
2013-06-03 08:28:00,69.2,47.5,29.84,SSE,156,6.0,8.0,46,0.00,,,0.00,Wunderground v.1.15,2013-06-03 14:28:00,
2013-06-03 08:34:00,69.3,47.6,29.84,SSE,167,7.0,8.0,46,0.00,,,0.00,Wunderground v.1.15,2013-06-03 14:34:00,
2013-06-03 08:43:00,69.9,48.2,29.84,SW,221,6.0,7.0,46,0.00,,,0.00,Wunderground v.1.15,2013-06-03 14:43:00,
2013-06-03 08:49:00,69.8,48.1,29.84,South,184,6.0,6.0,46,0.00,,,0.00,Wunderground v.1.15,2013-06-03 14:49:00,
2013-06-03 08:59:00,70.5,48.7,29.84,South,171,4.0,4.0,46,0.00,,,0.00,Wunderground v.1.15,2013-06-03 14:59:00,
2013-06-03 09:08:00,70.5,48.1,29.84,SE,125,7.0,7.0,45,0.00,,,0.00,Wunderground v.1.15,2013-06-03 15:08:00,
2013-06-03 09:14:00,70.8,48.4,29.83,SE,125,7.0,7.0,45,0.00,,,0.00,Wunderground v.1.15,2013-06-03 15:14:00,
2013-06-03 09:24:00,71.4,48.9,29.83,South,174,7.0,8.0,45,0.00,,,0.00,Wunderground v.1.15,2013-06-03 15:24:00,
2013-06-03 09:33:00,72.4,49.3,29.83,SSE,159,5.0,7.0,44,0.00,,,0.00,Wunderground v.1.15,2013-06-03 15:33:00,
2013-06-03 09:43:00,73.2,48.7,29.83,SW,235,4.0,7.0,42,0.00,,,0.00,Wunderground v.1.15,2013-06-03 15:43:00,
2013-06-03 09:53:00,73.4,48.3,29.83,SSE,158,6.0,6.0,41,0.00,,,0.00,Wunderground v.1.15,2013-06-03 15:53:00,
2013-06-03 09:59:00,73.8,48.6,29.82,SSE,158,6.0,6.0,41,0.00,,,0.00,Wunderground v.1.15,2013-06-03 15:59:00,
2013-06-03 10:08:00,73.9,48.7,29.82,SSW,194,6.0,6.0,41,0.00,,,0.00,Wunderground v.1.15,2013-06-03 16:08:00,
2013-06-03 10:14:00,74.2,48.3,29.82,SE,131,6.0,6.0,40,0.00,,,0.00,Wunderground v.1.15,2013-06-03 16:14:00,
2013-06-03 10:23:00,74.4,48.5,29.82,SSE,151,5.0,10.0,40,0.00,,,0.00,Wunderground v.1.15,2013-06-03 16:23:00,
2013-06-03 10:33:00,75.5,49.5,29.81,SE,136,5.0,7.0,40,0.00,,,0.00,Wunderground v.1.15,2013-06-03 16:33:00,
2013-06-03 10:39:00,75.9,49.2,29.81,SE,132,5.0,5.0,39,0.00,,,0.00,Wunderground v.1.15,2013-06-03 16:39:00,
2013-06-03 10:44:00,76.4,48.9,29.81,SE,124,5.0,5.0,38,0.00,,,0.00,Wunderground v.1.15,2013-06-03 16:44:00,
2013-06-03 10:53:00,76.4,48.2,29.81,SSW,194,6.0,6.0,37,0.00,,,0.00,Wunderground v.1.15,2013-06-03 16:53:00,
2013-06-03 10:59:00,76.8,47.8,29.81,SE,139,5.0,5.0,36,0.00,,,0.00,Wunderground v.1.15,2013-06-03 16:59:00,
2013-06-03 11:08:00,77.4,47.6,29.81,WSW,246,5.0,5.0,35,0.00,,,0.00,Wunderground v.1.15,2013-06-03 17:08:00,
2013-06-03 11:13:00,77.8,47.9,29.80,ESE,110,4.0,10.0,35,0.00,,,0.00,Wunderground v.1.15,2013-06-03 17:13:00,
2013-06-03 11:19:00,78.2,47.5,29.80,SSE,152,4.0,4.0,34,0.00,,,0.00,Wunderground v.1.15,2013-06-03 17:19:00,
2013-06-03 11:24:00,78.7,48.0,29.80,South,187,4.0,5.0,34,0.00,,,0.00,Wunderground v.1.15,2013-06-03 17:24:00,
2013-06-03 11:34:00,79.8,47.3,29.80,SE,127,4.0,5.0,32,0.00,,,0.00,Wunderground v.1.15,2013-06-03 17:34:00,
2013-06-03 11:43:00,80.3,45.1,29.79,SW,217,4.0,4.0,29,0.00,,,0.00,Wunderground v.1.15,2013-06-03 17:43:00,
2013-06-03 11:53:00,80.5,45.3,29.79,SSE,155,4.0,5.0,29,0.00,,,0.00,Wunderground v.1.15,2013-06-03 17:53:00,
2013-06-03 11:59:00,80.5,44.4,29.79,SE,135,5.0,5.0,28,0.00,,,0.00,Wunderground v.1.15,2013-06-03 17:59:00,
2013-06-03 12:09:00,81.6,43.4,29.78,SW,221,4.0,11.0,26,0.00,,,0.00,Wunderground v.1.15,2013-06-03 18:09:00,
2013-06-03 12:19:00,82.2,42.9,29.78,South,169,4.0,4.0,25,0.00,,,0.00,Wunderground v.1.15,2013-06-03 18:19:00,
2013-06-03 12:28:00,82.6,42.1,29.78,ENE,70,3.0,4.0,24,0.00,,,0.00,Wunderground v.1.15,2013-06-03 18:28:00,
2013-06-03 12:38:00,83.0,42.5,29.77,SE,136,4.0,4.0,24,0.00,,,0.00,Wunderground v.1.15,2013-06-03 18:38:00,
2013-06-03 12:44:00,83.3,42.7,29.76,SE,129,4.0,6.0,24,0.00,,,0.00,Wunderground v.1.15,2013-06-03 18:44:00,
2013-06-03 12:53:00,83.9,41.0,29.76,SE,127,4.0,6.0,22,0.00,,,0.00,Wunderground v.1.15,2013-06-03 18:53:00,
2013-06-03 12:59:00,84.1,41.1,29.75,ESE,122,4.0,4.0,22,0.00,,,0.00,Wunderground v.1.15,2013-06-03 18:59:00,
2013-06-03 13:08:00,85.0,40.7,29.74,SSE,153,5.0,5.0,21,0.00,,,0.00,Wunderground v.1.15,2013-06-03 19:08:00,
2013-06-03 13:13:00,85.5,39.8,29.74,SE,137,5.0,12.0,20,0.00,,,0.00,Wunderground v.1.15,2013-06-03 19:13:00,
2013-06-03 13:19:00,85.3,37.0,29.73,ESE,118,6.0,6.0,18,0.00,,,0.00,Wunderground v.1.15,2013-06-03 19:19:00,
2013-06-03 13:28:00,86.1,36.2,29.73,South,187,5.0,5.0,17,0.00,,,0.00,Wunderground v.1.15,2013-06-03 19:28:00,
2013-06-03 13:33:00,85.8,34.4,29.73,SE,125,6.0,10.0,16,0.00,,,0.00,Wunderground v.1.15,2013-06-03 19:33:00,
2013-06-03 13:39:00,86.4,36.4,29.73,SSE,149,7.0,12.0,17,0.00,,,0.00,Wunderground v.1.15,2013-06-03 19:39:00,
2013-06-03 13:48:00,86.5,36.5,29.72,SE,136,7.0,11.0,17,0.00,,,0.00,Wunderground v.1.15,2013-06-03 19:48:00,
2013-06-03 13:59:00,87.3,35.6,29.72,SSW,200,7.0,7.0,16,0.00,,,0.00,Wunderground v.1.15,2013-06-03 19:59:00,
2013-06-03 14:08:00,87.8,36.0,29.71,SSE,149,4.0,6.0,16,0.00,,,0.00,Wunderground v.1.15,2013-06-03 20:08:00,
2013-06-03 14:13:00,88.3,36.4,29.71,SSW,193,4.0,8.0,16,0.00,,,0.00,Wunderground v.1.15,2013-06-03 20:13:00,
2013-06-03 14:19:00,87.6,35.9,29.71,SSW,212,5.0,10.0,16,0.00,,,0.00,Wunderground v.1.15,2013-06-03 20:19:00,
2013-06-03 14:29:00,87.0,36.9,29.70,SSE,159,6.0,6.0,17,0.00,,,0.00,Wunderground v.1.15,2013-06-03 20:29:00,
2013-06-03 14:38:00,87.5,37.3,29.69,SSE,156,6.0,6.0,17,0.00,,,0.00,Wunderground v.1.15,2013-06-03 20:38:00,
2013-06-03 14:48:00,88.2,36.3,29.69,East,96,6.0,6.0,16,0.00,,,0.00,Wunderground v.1.15,2013-06-03 20:48:00,
2013-06-03 14:53:00,88.5,34.9,29.69,SE,132,5.0,6.0,15,0.00,,,0.00,Wunderground v.1.15,2013-06-03 20:53:00,
2013-06-03 14:59:00,88.5,36.6,29.68,South,190,4.0,4.0,16,0.00,,,0.00,Wunderground v.1.15,2013-06-03 20:59:00,
2013-06-03 15:09:00,88.5,36.6,29.68,East,89,3.0,3.0,16,0.00,,,0.00,Wunderground v.1.15,2013-06-03 21:09:00,
2013-06-03 15:18:00,88.1,36.3,29.68,SE,145,4.0,4.0,16,0.00,,,0.00,Wunderground v.1.15,2013-06-03 21:18:00,
2013-06-03 15:23:00,87.3,35.6,29.67,ESE,112,4.0,4.0,16,0.00,,,0.00,Wunderground v.1.15,2013-06-03 21:23:00,
2013-06-03 15:33:00,88.8,35.2,29.67,South,184,5.0,5.0,15,0.00,,,0.00,Wunderground v.1.15,2013-06-03 21:33:00,
2013-06-03 15:38:00,89.5,35.7,29.66,SSE,166,5.0,7.0,15,0.00,,,0.00,Wunderground v.1.15,2013-06-03 21:38:00,
2013-06-03 15:48:00,89.8,36.0,29.66,SW,218,6.0,6.0,15,0.00,,,0.00,Wunderground v.1.15,2013-06-03 21:48:00,
2013-06-03 15:59:00,91.0,35.2,29.65,SE,143,4.0,5.0,14,0.00,,,0.00,Wunderground v.1.15,2013-06-03 21:59:00,
2013-06-03 16:08:00,90.9,35.1,29.65,SSW,194,4.0,6.0,14,0.00,,,0.00,Wunderground v.1.15,2013-06-03 22:08:00,
2013-06-03 16:13:00,91.2,35.3,29.65,West,270,5.0,6.0,14,0.00,,,0.00,Wunderground v.1.15,2013-06-03 22:13:00,
2013-06-03 16:23:00,90.5,34.8,29.64,SE,129,5.0,7.0,14,0.00,,,0.00,Wunderground v.1.15,2013-06-03 22:23:00,
2013-06-03 16:33:00,89.3,35.6,29.64,SW,221,3.0,5.0,15,0.00,,,0.00,Wunderground v.1.15,2013-06-03 22:33:00,
2013-06-03 16:39:00,89.0,35.3,29.64,SSE,155,3.0,4.0,15,0.00,,,0.00,Wunderground v.1.15,2013-06-03 22:39:00,
2013-06-03 16:44:00,88.6,35.0,29.64,South,180,4.0,6.0,15,0.00,,,0.00,Wunderground v.1.15,2013-06-03 22:44:00,
2013-06-03 16:53:00,89.8,36.0,29.63,WSW,249,5.0,9.0,15,0.00,,,0.00,Wunderground v.1.15,2013-06-03 22:53:00,
2013-06-03 16:59:00,90.5,36.5,29.63,WSW,249,4.0,5.0,15,0.00,,,0.00,Wunderground v.1.15,2013-06-03 22:59:00,
2013-06-03 17:08:00,90.5,32.9,29.63,SSE,165,6.0,9.0,13,0.00,,,0.00,Wunderground v.1.15,2013-06-03 23:08:00,
2013-06-03 17:13:00,90.4,32.9,29.63,East,99,7.0,9.0,13,0.00,,,0.00,Wunderground v.1.15,2013-06-03 23:13:00,
2013-06-03 17:19:00,90.6,33.0,29.62,SSE,155,5.0,5.0,13,0.00,,,0.00,Wunderground v.1.15,2013-06-03 23:19:00,
2013-06-03 17:29:00,91.1,31.4,29.62,SW,216,6.0,6.0,12,0.00,,,0.00,Wunderground v.1.15,2013-06-03 23:29:00,
2013-06-03 17:38:00,91.1,31.4,29.61,South,171,7.0,7.0,12,0.00,,,0.00,Wunderground v.1.15,2013-06-03 23:38:00,
2013-06-03 17:48:00,91.3,29.4,29.60,SE,144,5.0,5.0,11,0.00,,,0.00,Wunderground v.1.15,2013-06-03 23:48:00,
2013-06-03 17:59:00,91.4,31.6,29.61,SW,235,5.0,6.0,12,0.00,,,0.00,Wunderground v.1.15,2013-06-03 23:59:00,
2013-06-03 18:08:00,91.7,29.7,29.61,SSE,156,4.0,8.0,11,0.00,,,0.00,Wunderground v.1.15,2013-06-04 00:08:00,
2013-06-03 18:13:00,91.1,33.4,29.60,SSE,150,5.0,8.0,13,0.00,,,0.00,Wunderground v.1.15,2013-06-04 00:13:00,
2013-06-03 18:23:00,91.5,33.7,29.61,SW,214,3.0,5.0,13,0.00,,,0.00,Wunderground v.1.15,2013-06-04 00:23:00,
2013-06-03 18:33:00,91.5,21.9,29.60,NW,309,3.0,9.0,8,0.00,,,0.00,Wunderground v.1.15,2013-06-04 00:33:00,
2013-06-03 18:43:00,91.4,15.1,29.61,South,181,4.0,4.0,6,0.00,,,0.00,Wunderground v.1.15,2013-06-04 00:43:00,
2013-06-03 18:48:00,91.3,15.0,29.61,SW,224,5.0,5.0,6,0.00,,,0.00,Wunderground v.1.15,2013-06-04 00:48:00,
2013-06-03 18:59:00,90.8,10.5,29.62,NNW,333,6.0,8.0,5,0.00,,,0.00,Wunderground v.1.15,2013-06-04 00:59:00,
2013-06-03 19:08:00,90.2,14.2,29.62,WSW,242,6.0,12.0,6,0.00,,,0.00,Wunderground v.1.15,2013-06-04 01:08:00,
2013-06-03 19:13:00,90.1,14.2,29.62,NW,309,6.0,12.0,6,0.00,,,0.00,Wunderground v.1.15,2013-06-04 01:13:00,
2013-06-03 19:23:00,89.5,13.7,29.63,West,263,7.0,10.0,6,0.00,,,0.00,Wunderground v.1.15,2013-06-04 01:23:00,
2013-06-03 19:28:00,89.3,13.6,29.63,WNW,302,7.0,9.0,6,0.00,,,0.00,Wunderground v.1.15,2013-06-04 01:28:00,
2013-06-03 19:38:00,88.3,12.9,29.64,NW,311,6.0,12.0,6,0.00,,,0.00,Wunderground v.1.15,2013-06-04 01:38:00,
2013-06-03 19:43:00,88.0,12.7,29.64,West,278,6.0,12.0,6,0.00,,,0.00,Wunderground v.1.15,2013-06-04 01:43:00,
2013-06-03 19:48:00,87.7,12.5,29.64,WNW,296,6.0,6.0,6,0.00,,,0.00,Wunderground v.1.15,2013-06-04 01:48:00,
2013-06-03 19:53:00,87.3,12.2,29.64,NNW,333,5.0,6.0,6,0.00,,,0.00,Wunderground v.1.15,2013-06-04 01:53:00,
2013-06-03 19:59:00,87.0,11.9,29.64,WSW,258,5.0,6.0,6,0.00,,,0.00,Wunderground v.1.15,2013-06-04 01:59:00,
2013-06-03 20:08:00,86.2,11.4,29.65,North,352,5.0,7.0,6,0.00,,,0.00,Wunderground v.1.15,2013-06-04 02:08:00,
2013-06-03 20:14:00,86.0,7.2,29.65,NNW,333,5.0,7.0,5,0.00,,,0.00,Wunderground v.1.15,2013-06-04 02:14:00,
2013-06-03 20:23:00,85.4,10.8,29.65,NW,310,4.0,6.0,6,0.00,,,0.00,Wunderground v.1.15,2013-06-04 02:23:00,
2013-06-03 20:33:00,84.5,10.2,29.66,WNW,288,3.0,4.0,6,0.00,,,0.00,Wunderground v.1.15,2013-06-04 02:33:00,
2013-06-03 20:39:00,84.4,10.1,29.66,NNE,19,3.0,3.0,6,0.00,,,0.00,Wunderground v.1.15,2013-06-04 02:39:00,
2013-06-03 20:49:00,84.3,6.0,29.66,West,281,5.0,5.0,5,0.00,,,0.00,Wunderground v.1.15,2013-06-04 02:49:00,
2013-06-03 20:59:00,83.5,9.4,29.67,NW,312,3.0,5.0,6,0.00,,,0.00,Wunderground v.1.15,2013-06-04 02:59:00,
2013-06-03 21:09:00,82.9,9.0,29.67,NW,315,3.0,3.0,6,0.00,,,0.00,Wunderground v.1.15,2013-06-04 03:09:00,
2013-06-03 21:19:00,82.3,12.0,29.67,NW,322,3.0,3.0,7,0.00,,,0.00,Wunderground v.1.15,2013-06-04 03:19:00,
2013-06-03 21:29:00,81.5,11.4,29.68,NNW,333,2.0,2.0,7,0.00,,,0.00,Wunderground v.1.15,2013-06-04 03:29:00,
2013-06-03 21:39:00,81.2,11.2,29.69,NNE,15,4.0,4.0,7,0.00,,,0.00,Wunderground v.1.15,2013-06-04 03:39:00,
2013-06-03 21:44:00,80.9,11.0,29.69,NW,323,3.0,4.0,7,0.00,,,0.00,Wunderground v.1.15,2013-06-04 03:44:00,
2013-06-03 21:59:00,78.9,12.5,29.70,NNE,29,1.0,1.0,8,0.00,,,0.00,Wunderground v.1.15,2013-06-04 03:59:00,
2013-06-03 22:03:00,78.4,14.8,29.70,NNE,30,0.0,1.0,9,0.00,,,0.00,Wunderground v.1.15,2013-06-04 04:03:00,
2013-06-03 22:08:00,77.5,16.6,29.70,NE,46,0.0,0.0,10,0.00,,,0.00,Wunderground v.1.15,2013-06-04 04:08:00,
2013-06-03 22:13:00,76.9,13.7,29.70,ESE,118,0.0,1.0,9,0.00,,,0.00,Wunderground v.1.15,2013-06-04 04:13:00,
2013-06-03 22:18:00,76.6,15.9,29.70,NE,40,0.0,0.0,10,0.00,,,0.00,Wunderground v.1.15,2013-06-04 04:18:00,
2013-06-03 22:24:00,76.2,15.6,29.70,NNW,336,0.0,0.0,10,0.00,,,0.00,Wunderground v.1.15,2013-06-04 04:24:00,
2013-06-03 22:28:00,75.9,15.4,29.70,NNW,337,0.0,0.0,10,0.00,,,0.00,Wunderground v.1.15,2013-06-04 04:28:00,
2013-06-03 22:33:00,75.3,14.9,29.70,NNW,347,0.0,0.0,10,0.00,,,0.00,Wunderground v.1.15,2013-06-04 04:33:00,
2013-06-03 22:43:00,74.9,18.8,29.70,NE,37,0.0,2.0,12,0.00,,,0.00,Wunderground v.1.15,2013-06-04 04:43:00,
2013-06-03 22:48:00,75.1,17.0,29.70,NNW,329,1.0,1.0,11,0.00,,,0.00,Wunderground v.1.15,2013-06-04 04:48:00,
2013-06-03 22:53:00,76.1,13.1,29.70,NNW,335,2.0,6.0,9,0.00,,,0.00,Wunderground v.1.15,2013-06-04 04:53:00,
2013-06-03 22:59:00,77.4,11.4,29.71,West,264,3.0,3.0,8,0.00,,,0.00,Wunderground v.1.15,2013-06-04 04:59:00,
2013-06-03 23:09:00,78.3,12.1,29.71,NW,315,3.0,3.0,8,0.00,,,0.00,Wunderground v.1.15,2013-06-04 05:09:00,
2013-06-03 23:18:00,78.5,12.2,29.71,NE,41,2.0,2.0,8,0.00,,,0.00,Wunderground v.1.15,2013-06-04 05:18:00,
2013-06-03 23:28:00,77.9,11.8,29.71,North,8,1.0,1.0,8,0.00,,,0.00,Wunderground v.1.15,2013-06-04 05:28:00,
2013-06-03 23:33:00,77.9,11.8,29.71,West,274,1.0,1.0,8,0.00,,,0.00,Wunderground v.1.15,2013-06-04 05:33:00,
2013-06-03 23:38:00,77.8,11.7,29.71,North,9,1.0,4.0,8,0.00,,,0.00,Wunderground v.1.15,2013-06-04 05:38:00,
2013-06-03 23:44:00,77.8,11.7,29.71,NW,317,2.0,4.0,8,0.00,,,0.00,Wunderground v.1.15,2013-06-04 05:44:00,
2013-06-03 23:53:00,76.4,13.3,29.71,SE,143,0.0,1.0,9,0.00,,,0.00,Wunderground v.1.15,2013-06-04 05:53:00,
2013-06-03 23:59:00,75.6,12.7,29.72,NNE,20,0.0,1.0,9,0.00,,,0.00,Wunderground v.1.15,2013-06-04 05:59:00,